Time,TemperatureF,DewpointF,PressureIn,WindDirection,WindDirectionDegrees,WindSpeedMPH,WindSpeedGustMPH,Humidity,HourlyPrecipIn,Conditions,Clouds,dailyrainin,SoftwareType,DateUTC
2013-01-31 00:04:00,50.9,50.9,29.26,SE,131,0.0,9.0,100,0.00,,,0.00,VWS V14.00,2013-01-31 05:04:00,
2013-01-31 00:07:00,51.0,51.0,29.27,SE,131,0.0,9.0,100,0.00,,,0.00,VWS V14.00,2013-01-31 05:07:00,
2013-01-31 00:10:00,51.2,51.2,29.27,SE,131,0.0,9.0,100,0.00,,,0.00,VWS V14.00,2013-01-31 05:10:00,
2013-01-31 00:16:00,51.0,51.0,29.27,SE,131,0.0,9.0,100,0.00,,,0.00,VWS V14.00,2013-01-31 05:16:00,
2013-01-31 00:22:00,50.8,50.8,29.27,SE,131,0.0,9.0,100,0.00,,,0.00,VWS V14.00,2013-01-31 05:22:00,
2013-01-31 00:28:00,50.6,50.6,29.26,SE,124,0.0,9.0,100,0.00,,,0.00,VWS V14.00,2013-01-31 05:28:00,
2013-01-31 00:34:00,50.7,50.7,29.26,SE,141,0.0,9.0,100,0.00,,,0.00,VWS V14.00,2013-01-31 05:34:00,
2013-01-31 00:40:00,50.7,50.7,29.24,East,90,0.0,9.0,100,0.00,,,0.00,VWS V14.00,2013-01-31 05:40:00,
2013-01-31 00:46:00,50.7,50.7,29.23,South,179,4.3,9.0,100,0.00,,,0.00,VWS V14.00,2013-01-31 05:46:00,
2013-01-31 00:52:00,50.9,50.9,29.22,ESE,121,0.0,9.0,100,0.00,,,0.00,VWS V14.00,2013-01-31 05:52:00,
2013-01-31 00:58:00,50.8,50.8,29.22,SSE,165,0.0,9.0,100,0.00,,,0.00,VWS V14.00,2013-01-31 05:58:00,
2013-01-31 01:04:00,50.7,50.7,29.21,South,170,0.0,10.2,100,0.00,,,0.00,VWS V14.00,2013-01-31 06:04:00,
2013-01-31 01:10:00,51.1,51.1,29.19,South,188,0.0,10.2,100,0.00,,,0.00,VWS V14.00,2013-01-31 06:10:00,
2013-01-31 01:16:00,51.0,51.0,29.19,SSE,148,0.0,10.2,100,0.00,,,0.00,VWS V14.00,2013-01-31 06:16:00,
2013-01-31 01:22:00,51.0,51.0,29.17,SE,145,5.4,10.5,100,0.00,,,0.00,VWS V14.00,2013-01-31 06:22:00,
2013-01-31 01:28:00,51.0,51.0,29.16,ESE,114,0.0,10.5,100,0.00,,,0.00,VWS V14.00,2013-01-31 06:28:00,
2013-01-31 01:34:00,50.8,50.8,29.16,East,101,0.0,10.5,100,0.00,,,0.00,VWS V14.00,2013-01-31 06:34:00,
2013-01-31 01:40:00,50.8,50.8,29.15,ENE,66,0.0,10.5,100,0.00,,,0.00,VWS V14.00,2013-01-31 06:40:00,
2013-01-31 01:46:00,50.7,50.7,29.14,SE,124,0.0,13.4,100,0.00,,,0.00,VWS V14.00,2013-01-31 06:46:00,
2013-01-31 01:52:00,50.8,50.8,29.15,South,173,0.0,13.4,100,0.00,,,0.00,VWS V14.00,2013-01-31 06:52:00,
2013-01-31 01:59:00,50.7,50.7,29.12,ENE,76,0.0,13.4,100,0.00,,,0.00,VWS V14.00,2013-01-31 06:59:00,
2013-01-31 02:05:00,50.6,50.6,29.12,ESE,112,0.0,13.4,100,0.00,,,0.00,VWS V14.00,2013-01-31 07:05:00,
2013-01-31 02:11:00,50.5,50.5,29.11,South,170,5.7,13.4,100,0.00,,,0.00,VWS V14.00,2013-01-31 07:11:00,
2013-01-31 02:17:00,50.3,50.3,29.10,SE,136,0.0,13.4,100,0.00,,,0.00,VWS V14.00,2013-01-31 07:17:00,
2013-01-31 02:23:00,50.2,50.2,29.09,SE,131,0.0,13.4,100,0.00,,,0.00,VWS V14.00,2013-01-31 07:23:00,
2013-01-31 02:29:00,49.9,49.9,29.09,SE,136,4.2,13.4,100,0.00,,,0.00,VWS V14.00,2013-01-31 07:29:00,
2013-01-31 02:35:00,49.9,49.9,29.07,SE,125,0.0,13.9,100,0.00,,,0.00,VWS V14.00,2013-01-31 07:35:00,
2013-01-31 02:41:00,49.8,49.8,29.07,East,101,3.4,13.9,100,0.00,,,0.00,VWS V14.00,2013-01-31 07:41:00,
2013-01-31 02:47:00,49.7,49.7,29.08,NNE,14,0.0,13.9,100,0.00,,,0.00,VWS V14.00,2013-01-31 07:47:00,
2013-01-31 02:53:00,49.6,49.6,29.06,NNE,14,0.0,13.9,100,0.00,,,0.00,VWS V14.00,2013-01-31 07:53:00,
2013-01-31 02:59:00,49.6,49.6,29.05,SE,138,0.0,13.9,100,0.00,,,0.00,VWS V14.00,2013-01-31 07:59:00,
2013-01-31 03:05:00,49.7,49.7,29.04,SE,136,0.0,13.9,100,0.00,,,0.00,VWS V14.00,2013-01-31 08:05:00,
2013-01-31 03:11:00,49.8,49.8,29.04,SE,132,0.0,13.9,100,0.00,,,0.00,VWS V14.00,2013-01-31 08:11:00,
2013-01-31 03:17:00,49.6,49.6,29.02,East,93,0.0,13.9,100,0.00,,,0.00,VWS V14.00,2013-01-31 08:17:00,
2013-01-31 03:23:00,49.6,49.6,29.01,ESE,103,0.0,13.9,100,0.00,,,0.00,VWS V14.00,2013-01-31 08:23:00,
2013-01-31 03:29:00,49.7,49.7,29.00,ESE,107,4.3,13.9,100,0.00,,,0.00,VWS V14.00,2013-01-31 08:29:00,
2013-01-31 03:35:00,49.5,49.5,29.00,East,98,0.0,13.9,100,0.00,,,0.00,VWS V14.00,2013-01-31 08:35:00,
2013-01-31 03:41:00,49.7,49.7,28.99,SSE,155,6.3,13.9,100,0.00,,,0.00,VWS V14.00,2013-01-31 08:41:00,
2013-01-31 03:47:00,49.6,49.6,28.97,NE,35,0.0,13.9,100,0.00,,,0.00,VWS V14.00,2013-01-31 08:47:00,
2013-01-31 03:53:00,49.7,49.7,28.96,NE,35,0.0,13.9,100,0.00,,,0.00,VWS V14.00,2013-01-31 08:53:00,
2013-01-31 03:59:00,49.8,49.8,28.96,NE,35,0.0,13.9,100,0.00,,,0.00,VWS V14.00,2013-01-31 08:59:00,
2013-01-31 04:05:00,49.7,49.7,28.96,NE,35,0.0,13.9,100,0.00,,,0.00,VWS V14.00,2013-01-31 09:05:00,
2013-01-31 04:11:00,49.5,49.5,28.96,NE,35,0.0,13.9,100,0.00,,,0.00,VWS V14.00,2013-01-31 09:11:00,
2013-01-31 04:17:00,49.5,49.5,28.95,NE,35,0.0,13.9,100,0.00,,,0.00,VWS V14.00,2013-01-31 09:17:00,
2013-01-31 04:23:00,49.4,49.4,28.94,NE,35,0.0,13.9,100,0.00,,,0.00,VWS V14.00,2013-01-31 09:23:00,
2013-01-31 04:29:00,49.4,49.4,28.93,NE,35,0.0,13.9,100,0.00,,,0.00,VWS V14.00,2013-01-31 09:29:00,
2013-01-31 04:35:00,49.3,49.3,28.93,NE,35,0.0,13.9,100,0.00,,,0.00,VWS V14.00,2013-01-31 09:35:00,
2013-01-31 04:41:00,49.3,49.3,28.94,NE,35,0.0,13.9,100,0.00,,,0.00,VWS V14.00,2013-01-31 09:41:00,
2013-01-31 04:47:00,49.4,49.4,28.93,NE,35,0.0,13.9,100,0.00,,,0.00,VWS V14.00,2013-01-31 09:47:00,
2013-01-31 04:53:00,49.5,49.5,28.93,NE,35,0.0,13.9,100,0.00,,,0.00,VWS V14.00,2013-01-31 09:53:00,
2013-01-31 04:59:00,49.8,49.8,28.92,NE,35,0.0,13.9,100,0.00,,,0.00,VWS V14.00,2013-01-31 09:59:00,
2013-01-31 05:05:00,49.6,49.6,28.91,NNE,24,0.0,13.9,100,0.00,,,0.00,VWS V14.00,2013-01-31 10:05:00,
2013-01-31 05:11:00,49.6,49.6,28.91,NNE,24,0.0,13.9,100,0.00,,,0.00,VWS V14.00,2013-01-31 10:11:00,
2013-01-31 05:17:00,49.8,49.8,28.91,NNE,24,0.0,13.9,100,0.00,,,0.00,VWS V14.00,2013-01-31 10:17:00,
2013-01-31 05:23:00,49.8,49.8,28.92,NNE,24,0.0,13.9,100,0.00,,,0.00,VWS V14.00,2013-01-31 10:23:00,
2013-01-31 05:29:00,50.1,50.1,28.91,NNE,24,0.0,13.9,100,0.00,,,0.00,VWS V14.00,2013-01-31 10:29:00,
2013-01-31 05:35:00,50.5,50.5,28.89,NNE,24,0.0,13.9,100,0.00,,,0.00,VWS V14.00,2013-01-31 10:35:00,
2013-01-31 05:41:00,50.3,50.3,28.86,NNE,24,0.0,13.9,100,0.00,,,0.00,VWS V14.00,2013-01-31 10:41:00,
2013-01-31 05:48:00,50.5,50.5,28.86,NNE,24,0.0,13.9,100,0.00,,,0.00,VWS V14.00,2013-01-31 10:48:00,
2013-01-31 05:54:00,50.6,50.6,28.90,NNE,24,0.0,13.9,100,0.00,,,0.00,VWS V14.00,2013-01-31 10:54:00,
2013-01-31 06:00:00,50.5,50.5,28.89,North,3,0.0,13.9,100,0.00,,,0.00,VWS V14.00,2013-01-31 11:00:00,
2013-01-31 06:06:00,50.7,50.7,28.89,North,3,0.0,13.9,100,0.00,,,0.00,VWS V14.00,2013-01-31 11:06:00,
2013-01-31 06:12:00,50.9,50.9,28.86,North,3,0.0,13.9,100,0.00,,,0.00,VWS V14.00,2013-01-31 11:12:00,
2013-01-31 06:18:00,51.0,51.0,28.84,North,8,7.6,13.9,100,0.00,,,0.00,VWS V14.00,2013-01-31 11:18:00,
2013-01-31 06:24:00,51.1,51.1,28.87,North,7,0.0,13.9,100,0.00,,,0.00,VWS V14.00,2013-01-31 11:24:00,
2013-01-31 06:30:00,51.1,51.1,28.85,NE,45,6.1,13.9,100,0.00,,,0.00,VWS V14.00,2013-01-31 11:30:00,
2013-01-31 06:36:00,51.2,51.2,28.81,North,6,0.0,15.4,100,0.00,,,0.00,VWS V14.00,2013-01-31 11:36:00,
2013-01-31 06:42:00,51.2,51.2,28.83,NNE,17,6.2,15.4,100,0.00,,,0.00,VWS V14.00,2013-01-31 11:42:00,
2013-01-31 06:48:00,51.1,51.1,28.81,NW,318,0.0,15.4,100,0.00,,,0.00,VWS V14.00,2013-01-31 11:48:00,
2013-01-31 06:54:00,51.0,51.0,28.81,North,6,0.0,15.4,100,0.00,,,0.00,VWS V14.00,2013-01-31 11:54:00,
2013-01-31 07:00:00,51.0,51.0,28.84,NNW,328,12.3,15.4,100,0.00,,,0.00,VWS V14.00,2013-01-31 12:00:00,
2013-01-31 07:06:00,51.1,51.1,28.85,NW,315,0.0,15.4,100,0.00,,,0.00,VWS V14.00,2013-01-31 12:06:00,
2013-01-31 07:12:00,50.6,50.6,28.86,NW,319,0.0,15.4,100,0.00,,,0.00,VWS V14.00,2013-01-31 12:12:00,
2013-01-31 07:18:00,50.2,50.2,28.86,North,353,0.0,15.4,100,0.00,,,0.00,VWS V14.00,2013-01-31 12:18:00,
2013-01-31 07:24:00,49.8,49.8,28.87,NW,319,10.3,15.5,100,0.00,,,0.00,VWS V14.00,2013-01-31 12:24:00,
2013-01-31 07:30:00,48.7,48.7,28.88,NNW,329,7.3,21.0,100,0.00,,,0.00,VWS V14.00,2013-01-31 12:30:00,
2013-01-31 07:36:00,47.1,47.1,28.89,NW,307,9.8,21.0,100,0.00,,,0.00,VWS V14.00,2013-01-31 12:36:00,
2013-01-31 07:42:00,45.9,45.9,28.92,NW,326,6.3,21.0,100,0.00,,,0.00,VWS V14.00,2013-01-31 12:42:00,
2013-01-31 07:48:00,45.0,45.0,28.94,NNW,329,0.0,21.0,100,0.00,,,0.00,VWS V14.00,2013-01-31 12:48:00,
2013-01-31 07:54:00,44.4,44.4,28.95,NNW,329,0.0,21.0,100,0.00,,,0.00,VWS V14.00,2013-01-31 12:54:00,
2013-01-31 08:00:00,43.8,43.8,28.96,West,271,3.4,21.0,100,0.00,,,0.00,VWS V14.00,2013-01-31 13:00:00,
2013-01-31 08:06:00,43.3,43.3,28.97,NNW,338,3.2,21.0,100,0.00,,,0.00,VWS V14.00,2013-01-31 13:06:00,
2013-01-31 08:12:00,42.7,42.7,28.96,NNE,13,6.0,21.0,100,0.00,,,0.00,VWS V14.00,2013-01-31 13:12:00,
2013-01-31 08:18:00,42.4,42.4,28.98,NNW,338,3.5,21.0,100,0.00,,,0.00,VWS V14.00,2013-01-31 13:18:00,
2013-01-31 08:24:00,41.7,41.7,28.98,NNW,339,5.2,21.0,100,0.00,,,0.00,VWS V14.00,2013-01-31 13:24:00,
2013-01-31 08:30:00,41.2,41.2,28.99,NNW,329,0.0,21.0,100,0.00,,,0.00,VWS V14.00,2013-01-31 13:30:00,
2013-01-31 08:36:00,40.9,40.9,28.99,North,350,8.9,21.0,100,0.00,,,0.00,VWS V14.00,2013-01-31 13:36:00,
2013-01-31 08:42:00,40.6,40.6,28.99,NNW,332,8.9,21.0,100,0.00,,,0.00,VWS V14.00,2013-01-31 13:42:00,
2013-01-31 08:48:00,40.2,40.2,29.00,NW,319,8.1,21.0,100,0.00,,,0.00,VWS V14.00,2013-01-31 13:48:00,
2013-01-31 08:54:00,39.5,39.5,29.01,NNW,346,9.6,21.0,100,0.00,,,0.00,VWS V14.00,2013-01-31 13:54:00,
2013-01-31 09:00:00,38.8,38.8,29.01,NNW,343,10.4,21.0,100,0.00,,,0.00,VWS V14.00,2013-01-31 14:00:00,
2013-01-31 09:06:00,38.2,38.2,29.01,NNW,336,10.3,21.0,100,0.00,,,0.00,VWS V14.00,2013-01-31 14:06:00,
2013-01-31 09:12:00,38.0,38.0,29.02,NW,323,8.9,21.0,100,0.00,,,0.00,VWS V14.00,2013-01-31 14:12:00,
2013-01-31 09:18:00,37.7,37.7,29.02,NNW,346,0.0,21.0,100,0.00,,,0.00,VWS V14.00,2013-01-31 14:18:00,
2013-01-31 09:24:00,37.4,37.4,29.02,WNW,297,0.0,21.0,100,0.00,,,0.00,VWS V14.00,2013-01-31 14:24:00,
2013-01-31 09:30:00,37.5,37.5,29.02,NNW,336,9.6,21.0,100,0.00,,,0.00,VWS V14.00,2013-01-31 14:30:00,
2013-01-31 09:36:00,37.4,37.4,29.02,NNW,347,4.3,21.0,100,0.00,,,0.00,VWS V14.00,2013-01-31 14:36:00,
2013-01-31 09:42:00,37.5,37.3,29.03,NNW,328,8.2,21.0,99,0.00,,,0.00,VWS V14.00,2013-01-31 14:42:00,
2013-01-31 09:48:00,37.3,37.1,29.02,NW,309,10.3,21.0,99,0.00,,,0.00,VWS V14.00,2013-01-31 14:48:00,
2013-01-31 09:54:00,37.2,37.0,29.02,NNW,329,13.3,22.7,99,0.00,,,0.00,VWS V14.00,2013-01-31 14:54:00,
2013-01-31 10:00:00,37.0,36.8,29.02,North,8,8.3,22.7,99,0.00,,,0.00,VWS V14.00,2013-01-31 15:00:00,
2013-01-31 10:06:00,37.0,36.8,29.03,NNW,345,9.2,22.7,99,0.00,,,0.00,VWS V14.00,2013-01-31 15:06:00,
2013-01-31 10:12:00,36.8,36.7,29.03,North,352,9.8,22.7,99,0.00,,,0.00,VWS V14.00,2013-01-31 15:12:00,
2013-01-31 10:22:00,36.6,36.1,29.03,NW,318,15.2,23.1,98,0.00,,,0.00,VWS V14.00,2013-01-31 15:22:00,
2013-01-31 10:28:00,36.6,35.9,29.04,NNW,346,9.6,23.1,97,0.00,,,0.00,VWS V14.00,2013-01-31 15:28:00,
2013-01-31 10:34:00,36.6,35.9,29.05,North,349,9.9,23.1,97,0.00,,,0.00,VWS V14.00,2013-01-31 15:34:00,
2013-01-31 10:40:00,36.1,35.2,29.06,NW,318,7.1,23.1,96,0.00,,,0.00,VWS V14.00,2013-01-31 15:40:00,
2013-01-31 10:46:00,35.9,34.8,29.06,NNW,343,16.7,24.4,96,0.00,,,0.00,VWS V14.00,2013-01-31 15:46:00,
2013-01-31 10:52:00,35.8,34.4,29.06,NNW,329,14.2,24.4,95,0.00,,,0.00,VWS V14.00,2013-01-31 15:52:00,
2013-01-31 10:58:00,35.6,33.8,29.06,NNE,32,12.9,24.4,93,0.00,,,0.00,VWS V14.00,2013-01-31 15:58:00,
2013-01-31 11:04:00,35.4,33.2,29.07,NW,316,9.3,24.4,91,0.00,,,0.00,VWS V14.00,2013-01-31 16:04:00,
2013-01-31 11:10:00,35.3,32.6,29.08,NNW,347,19.3,24.4,90,0.00,,,0.00,VWS V14.00,2013-01-31 16:10:00,
2013-01-31 11:16:00,34.8,31.6,29.08,NNW,335,17.7,24.4,88,0.00,,,0.00,VWS V14.00,2013-01-31 16:16:00,
2013-01-31 11:22:00,34.7,30.9,29.08,NW,323,9.2,24.4,86,0.00,,,0.00,VWS V14.00,2013-01-31 16:22:00,
2013-01-31 11:28:00,34.6,30.5,29.09,NNW,335,11.1,24.4,85,0.00,,,0.00,VWS V14.00,2013-01-31 16:28:00,
2013-01-31 11:34:00,34.4,30.2,29.09,NNW,343,11.4,24.4,85,0.00,,,0.00,VWS V14.00,2013-01-31 16:34:00,
2013-01-31 11:40:00,34.3,30.1,29.09,NNW,339,19.0,26.2,84,0.00,,,0.00,VWS V14.00,2013-01-31 16:40:00,
2013-01-31 11:46:00,34.4,29.6,29.09,NW,322,12.7,26.2,82,0.00,,,0.00,VWS V14.00,2013-01-31 16:46:00,
2013-01-31 11:52:00,34.3,28.7,29.09,NNW,343,11.0,26.2,80,0.00,,,0.00,VWS V14.00,2013-01-31 16:52:00,
2013-01-31 11:58:00,34.3,28.3,29.10,NNW,335,9.8,26.2,78,0.00,,,0.00,VWS V14.00,2013-01-31 16:58:00,
2013-01-31 12:04:00,34.3,28.3,29.10,NW,319,10.9,26.2,78,0.00,,,0.00,VWS V14.00,2013-01-31 17:04:00,
2013-01-31 12:10:00,34.1,27.8,29.12,NW,312,11.9,26.2,77,0.00,,,0.00,VWS V14.00,2013-01-31 17:10:00,
2013-01-31 12:16:00,33.6,26.7,29.12,NW,322,12.8,26.2,75,0.00,,,0.00,VWS V14.00,2013-01-31 17:16:00,
2013-01-31 12:22:00,33.5,26.4,29.13,NW,316,7.0,26.2,75,0.00,,,0.00,VWS V14.00,2013-01-31 17:22:00,
2013-01-31 12:28:00,33.1,25.1,29.14,North,7,9.7,26.2,72,0.00,,,0.00,VWS V14.00,2013-01-31 17:28:00,
2013-01-31 12:34:00,33.0,24.8,29.14,NNW,336,9.1,26.2,72,0.00,,,0.00,VWS V14.00,2013-01-31 17:34:00,
2013-01-31 12:40:00,32.8,24.5,29.14,NNW,346,11.7,26.2,71,0.00,,,0.00,VWS V14.00,2013-01-31 17:40:00,
2013-01-31 12:46:00,32.7,24.2,29.14,NW,311,8.1,26.2,71,0.00,,,0.00,VWS V14.00,2013-01-31 17:46:00,
2013-01-31 12:52:00,32.7,24.3,29.14,NNW,347,12.4,26.2,71,0.00,,,0.00,VWS V14.00,2013-01-31 17:52:00,
2013-01-31 12:58:00,32.5,23.8,29.15,NNW,339,11.1,26.2,70,0.00,,,0.00,VWS V14.00,2013-01-31 17:58:00,
2013-01-31 13:04:00,32.4,23.3,29.15,NNW,333,10.1,26.2,69,0.00,,,0.00,VWS V14.00,2013-01-31 18:04:00,
2013-01-31 13:10:00,32.4,23.2,29.15,North,1,8.4,26.2,68,0.00,,,0.00,VWS V14.00,2013-01-31 18:10:00,
2013-01-31 13:16:00,32.2,22.6,29.16,NNW,332,9.8,26.2,67,0.00,,,0.00,VWS V14.00,2013-01-31 18:16:00,
2013-01-31 13:23:00,32.0,22.3,29.16,NW,307,10.9,26.2,67,0.00,,,0.00,VWS V14.00,2013-01-31 18:23:00,
2013-01-31 13:29:00,31.8,22.2,29.16,NNW,346,10.5,26.2,67,0.00,,,0.00,VWS V14.00,2013-01-31 18:29:00,
2013-01-31 13:35:00,31.6,22.0,29.17,NW,307,10.4,26.2,67,0.00,,,0.00,VWS V14.00,2013-01-31 18:35:00,
2013-01-31 13:41:00,31.5,21.7,29.18,North,7,14.7,26.2,67,0.00,,,0.00,VWS V14.00,2013-01-31 18:41:00,
2013-01-31 13:47:00,31.2,21.8,29.17,NW,316,12.6,26.2,68,0.00,,,0.00,VWS V14.00,2013-01-31 18:47:00,
2013-01-31 13:53:00,31.1,21.4,29.18,NNW,346,8.2,26.2,67,0.00,,,0.00,VWS V14.00,2013-01-31 18:53:00,
2013-01-31 13:59:00,30.9,21.2,29.18,NNW,332,7.6,26.2,67,0.00,,,0.00,VWS V14.00,2013-01-31 18:59:00,
2013-01-31 14:05:00,31.0,21.3,29.18,WNW,285,9.5,26.2,67,0.00,,,0.00,VWS V14.00,2013-01-31 19:05:00,
2013-01-31 14:11:00,30.9,20.7,29.19,NNW,345,7.3,26.2,65,0.00,,,0.00,VWS V14.00,2013-01-31 19:11:00,
2013-01-31 14:17:00,30.9,20.4,29.19,NW,326,13.2,26.2,65,0.00,,,0.00,VWS V14.00,2013-01-31 19:17:00,
2013-01-31 14:23:00,30.7,19.4,29.20,NNW,328,9.8,26.2,62,0.00,,,0.00,VWS V14.00,2013-01-31 19:23:00,
2013-01-31 14:29:00,30.7,18.9,29.20,NW,315,12.0,26.2,61,0.00,,,0.00,VWS V14.00,2013-01-31 19:29:00,
2013-01-31 14:35:00,30.7,18.9,29.20,NW,325,8.3,26.2,61,0.00,,,0.00,VWS V14.00,2013-01-31 19:35:00,
2013-01-31 14:41:00,30.8,19.3,29.21,NW,325,13.6,26.2,62,0.00,,,0.00,VWS V14.00,2013-01-31 19:41:00,
2013-01-31 14:47:00,30.7,19.5,29.21,NW,325,12.2,26.2,63,0.00,,,0.00,VWS V14.00,2013-01-31 19:47:00,
2013-01-31 14:53:00,30.7,19.2,29.22,WNW,294,15.5,26.2,62,0.00,,,0.00,VWS V14.00,2013-01-31 19:53:00,
2013-01-31 14:59:00,30.7,18.9,29.22,NW,315,12.9,26.2,61,0.00,,,0.00,VWS V14.00,2013-01-31 19:59:00,
2013-01-31 15:05:00,30.9,19.0,29.23,NW,316,12.8,26.2,61,0.00,,,0.00,VWS V14.00,2013-01-31 20:05:00,
2013-01-31 15:11:00,30.6,18.1,29.23,NW,323,9.5,26.2,59,0.00,,,0.00,VWS V14.00,2013-01-31 20:11:00,
2013-01-31 15:17:00,30.5,17.8,29.23,NW,326,9.9,26.2,59,0.00,,,0.00,VWS V14.00,2013-01-31 20:17:00,
2013-01-31 15:23:00,30.7,18.0,29.24,NNW,336,10.0,26.2,59,0.00,,,0.00,VWS V14.00,2013-01-31 20:23:00,
2013-01-31 15:29:00,30.7,18.0,29.24,North,352,13.9,26.2,59,0.00,,,0.00,VWS V14.00,2013-01-31 20:29:00,
2013-01-31 15:35:00,30.6,18.0,29.24,North,6,7.7,26.2,59,0.00,,,0.00,VWS V14.00,2013-01-31 20:35:00,
2013-01-31 15:41:00,30.4,17.9,29.24,NNW,338,14.8,26.2,59,0.00,,,0.00,VWS V14.00,2013-01-31 20:41:00,
2013-01-31 15:47:00,30.3,17.7,29.25,NW,319,10.3,26.2,59,0.00,,,0.00,VWS V14.00,2013-01-31 20:47:00,
2013-01-31 15:53:00,30.1,17.4,29.25,NNW,329,7.8,26.2,59,0.00,,,0.00,VWS V14.00,2013-01-31 20:53:00,
2013-01-31 15:59:00,30.0,17.6,29.26,NNW,330,13.2,26.2,60,0.00,,,0.00,VWS V14.00,2013-01-31 20:59:00,
2013-01-31 16:05:00,29.9,17.8,29.26,NNW,340,8.4,26.2,60,0.00,,,0.00,VWS V14.00,2013-01-31 21:05:00,
2013-01-31 16:11:00,29.8,17.8,29.26,NW,318,12.7,26.2,60,0.00,,,0.00,VWS V14.00,2013-01-31 21:11:00,
2013-01-31 16:17:00,29.7,17.5,29.26,NW,308,9.2,26.2,60,0.00,,,0.00,VWS V14.00,2013-01-31 21:17:00,
2013-01-31 16:23:00,29.5,17.1,29.27,NW,314,9.3,26.2,59,0.00,,,0.00,VWS V14.00,2013-01-31 21:23:00,
2013-01-31 16:29:00,29.4,17.0,29.27,NNW,333,9.4,26.2,59,0.00,,,0.00,VWS V14.00,2013-01-31 21:29:00,
2013-01-31 16:35:00,29.2,17.4,29.29,NNW,336,12.3,26.2,61,0.00,,,0.00,VWS V14.00,2013-01-31 21:35:00,
2013-01-31 16:41:00,28.8,16.5,29.29,NNW,342,16.2,26.2,60,0.00,,,0.00,VWS V14.00,2013-01-31 21:41:00,
2013-01-31 16:47:00,28.6,15.9,29.30,NNW,347,6.1,26.2,59,0.00,,,0.00,VWS V14.00,2013-01-31 21:47:00,
2013-01-31 16:53:00,28.3,16.0,29.30,NNW,339,10.4,26.2,59,0.00,,,0.00,VWS V14.00,2013-01-31 21:53:00,
2013-01-31 17:00:00,28.2,16.2,29.30,NNW,342,9.0,26.2,60,0.00,,,0.00,VWS V14.00,2013-01-31 22:00:00,
2013-01-31 17:06:00,27.9,16.4,29.30,NW,319,9.4,26.2,62,0.00,,,0.00,VWS V14.00,2013-01-31 22:06:00,
2013-01-31 17:12:00,27.9,16.6,29.30,NNW,336,11.1,26.2,62,0.00,,,0.00,VWS V14.00,2013-01-31 22:12:00,
2013-01-31 17:18:00,27.7,16.4,29.30,NNW,342,7.0,26.2,62,0.00,,,0.00,VWS V14.00,2013-01-31 22:18:00,
2013-01-31 17:24:00,27.7,16.4,29.31,NNW,345,6.5,26.2,62,0.00,,,0.00,VWS V14.00,2013-01-31 22:24:00,
2013-01-31 17:30:00,27.6,16.3,29.31,NW,319,14.4,26.2,62,0.00,,,0.00,VWS V14.00,2013-01-31 22:30:00,
2013-01-31 17:36:00,27.5,15.7,29.32,NNW,328,14.0,26.2,61,0.00,,,0.00,VWS V14.00,2013-01-31 22:36:00,
2013-01-31 17:42:00,27.7,15.5,29.32,NW,315,6.3,26.2,60,0.00,,,0.00,VWS V14.00,2013-01-31 22:42:00,
2013-01-31 17:48:00,27.5,15.6,29.32,North,359,8.5,26.2,60,0.00,,,0.00,VWS V14.00,2013-01-31 22:48:00,
2013-01-31 17:54:00,27.3,15.8,29.33,North,10,9.5,26.2,61,0.00,,,0.00,VWS V14.00,2013-01-31 22:54:00,
2013-01-31 18:00:00,27.3,15.6,29.33,NNW,330,9.3,26.2,61,0.00,,,0.00,VWS V14.00,2013-01-31 23:00:00,
2013-01-31 18:06:00,27.1,14.9,29.33,NNW,333,14.6,26.2,60,0.00,,,0.00,VWS V14.00,2013-01-31 23:06:00,
2013-01-31 18:12:00,26.9,14.2,29.34,NW,316,10.4,26.2,58,0.00,,,0.00,VWS V14.00,2013-01-31 23:12:00,
2013-01-31 18:18:00,27.0,13.9,29.34,NNW,330,12.2,26.2,57,0.00,,,0.00,VWS V14.00,2013-01-31 23:18:00,
2013-01-31 18:24:00,27.0,13.8,29.34,NNW,335,12.6,26.2,57,0.00,,,0.00,VWS V14.00,2013-01-31 23:24:00,
2013-01-31 18:30:00,26.9,13.7,29.35,NNW,347,14.7,26.2,57,0.00,,,0.00,VWS V14.00,2013-01-31 23:30:00,
2013-01-31 18:36:00,26.9,13.5,29.34,North,350,15.2,26.2,56,0.00,,,0.00,VWS V14.00,2013-01-31 23:36:00,
2013-01-31 18:42:00,26.9,13.2,29.35,NW,322,14.6,26.2,56,0.00,,,0.00,VWS V14.00,2013-01-31 23:42:00,
2013-01-31 18:48:00,26.8,12.7,29.35,North,357,8.0,26.2,55,0.00,,,0.00,VWS V14.00,2013-01-31 23:48:00,
2013-01-31 18:54:00,26.8,12.8,29.35,NNW,345,10.9,26.2,55,0.00,,,0.00,VWS V14.00,2013-01-31 23:54:00,
2013-01-31 19:00:00,26.7,12.6,29.36,NW,321,8.5,26.2,55,0.00,,,0.00,VWS V14.00,2013-02-01 00:00:00,
2013-01-31 19:06:00,26.7,12.8,29.37,North,350,7.8,26.2,55,0.00,,,0.00,VWS V14.00,2013-02-01 00:06:00,
2013-01-31 19:12:00,26.7,13.2,29.36,NNW,328,8.9,26.2,56,0.00,,,0.00,VWS V14.00,2013-02-01 00:12:00,
2013-01-31 19:18:00,26.6,13.6,29.37,NNW,335,8.0,26.2,57,0.00,,,0.00,VWS V14.00,2013-02-01 00:18:00,
2013-01-31 19:24:00,26.4,13.8,29.37,NNW,336,11.5,27.7,58,0.00,,,0.00,VWS V14.00,2013-02-01 00:24:00,
2013-01-31 19:30:00,26.3,14.2,29.37,NW,323,11.6,27.7,60,0.00,,,0.00,VWS V14.00,2013-02-01 00:30:00,
2013-01-31 19:36:00,26.2,14.3,29.38,NW,325,11.3,27.7,60,0.00,,,0.00,VWS V14.00,2013-02-01 00:36:00,
2013-01-31 19:42:00,26.1,14.3,29.38,NW,318,8.6,27.7,60,0.00,,,0.00,VWS V14.00,2013-02-01 00:42:00,
2013-01-31 19:48:00,25.9,14.4,29.38,NNW,343,12.2,27.7,61,0.00,,,0.00,VWS V14.00,2013-02-01 00:48:00,
2013-01-31 19:57:00,25.7,14.2,29.38,NW,308,11.4,27.7,61,0.00,,,0.00,VWS V14.00,2013-02-01 00:57:00,
2013-01-31 20:03:00,25.6,14.2,29.38,NNW,346,7.4,27.7,61,0.00,,,0.00,VWS V14.00,2013-02-01 01:03:00,
2013-01-31 20:10:00,25.6,14.0,29.39,NNW,339,9.6,27.7,61,0.00,,,0.00,VWS V14.00,2013-02-01 01:10:00,
2013-01-31 20:16:00,25.5,13.6,29.39,NNW,346,11.7,27.7,60,0.00,,,0.00,VWS V14.00,2013-02-01 01:16:00,
2013-01-31 20:22:00,25.5,13.6,29.39,NNW,328,9.1,27.7,60,0.00,,,0.00,VWS V14.00,2013-02-01 01:22:00,
2013-01-31 20:28:00,25.6,13.7,29.39,NW,325,7.0,27.7,60,0.00,,,0.00,VWS V14.00,2013-02-01 01:28:00,
2013-01-31 20:34:00,25.6,13.7,29.39,North,357,8.2,27.7,60,0.00,,,0.00,VWS V14.00,2013-02-01 01:34:00,
2013-01-31 20:40:00,25.6,13.8,29.39,NNW,338,7.4,27.7,60,0.00,,,0.00,VWS V14.00,2013-02-01 01:40:00,
2013-01-31 20:46:00,25.6,14.6,29.40,NW,319,0.0,27.7,62,0.00,,,0.00,VWS V14.00,2013-02-01 01:46:00,
2013-01-31 20:52:00,25.3,16.0,29.40,NNW,330,8.1,27.7,67,0.00,,,0.00,VWS V14.00,2013-02-01 01:52:00,
2013-01-31 20:58:00,25.2,17.8,29.40,WNW,291,5.8,27.7,73,0.00,,,0.00,VWS V14.00,2013-02-01 01:58:00,
2013-01-31 21:04:00,24.5,18.7,29.40,NW,318,6.6,27.7,78,0.00,,,0.00,VWS V14.00,2013-02-01 02:04:00,
2013-01-31 21:10:00,24.4,19.7,29.41,NNW,332,8.7,27.7,82,0.00,,,0.00,VWS V14.00,2013-02-01 02:10:00,
2013-01-31 21:16:00,23.9,20.0,29.41,NW,316,3.4,27.7,85,0.00,,,0.00,VWS V14.00,2013-02-01 02:16:00,
2013-01-31 21:22:00,23.6,20.3,29.41,NW,314,5.3,27.7,87,0.00,,,0.00,VWS V14.00,2013-02-01 02:22:00,
2013-01-31 21:28:00,23.5,20.7,29.42,NNW,333,5.2,27.7,89,0.00,,,0.00,VWS V14.00,2013-02-01 02:28:00,
2013-01-31 21:34:00,23.3,20.9,29.42,NNW,336,8.8,27.7,90,0.00,,,0.00,VWS V14.00,2013-02-01 02:34:00,
2013-01-31 21:40:00,23.0,20.8,29.42,NW,318,8.1,27.7,91,0.00,,,0.00,VWS V14.00,2013-02-01 02:40:00,
2013-01-31 21:46:00,22.6,20.5,29.42,NNE,13,6.2,27.7,92,0.00,,,0.00,VWS V14.00,2013-02-01 02:46:00,
2013-01-31 21:52:00,22.4,20.5,29.43,NNW,342,9.0,27.7,92,0.00,,,0.00,VWS V14.00,2013-02-01 02:52:00,
2013-01-31 21:58:00,22.3,20.6,29.43,NW,326,7.0,27.7,93,0.00,,,0.00,VWS V14.00,2013-02-01 02:58:00,
2013-01-31 22:04:00,22.2,20.6,29.43,WNW,302,7.6,27.7,93,0.00,,,0.00,VWS V14.00,2013-02-01 03:04:00,
2013-01-31 22:10:00,22.2,20.6,29.43,NW,315,0.0,27.7,93,0.00,,,0.00,VWS V14.00,2013-02-01 03:10:00,
2013-01-31 22:16:00,22.0,20.3,29.43,NW,309,10.8,27.7,93,0.00,,,0.00,VWS V14.00,2013-02-01 03:16:00,
2013-01-31 22:22:00,21.7,20.1,29.43,NW,307,6.6,27.7,94,0.00,,,0.00,VWS V14.00,2013-02-01 03:22:00,
2013-01-31 22:28:00,21.5,20.1,29.44,NW,315,8.8,27.7,94,0.00,,,0.00,VWS V14.00,2013-02-01 03:28:00,
2013-01-31 22:34:00,21.0,19.7,29.43,NW,326,5.2,27.7,95,0.00,,,0.00,VWS V14.00,2013-02-01 03:34:00,
2013-01-31 22:40:00,20.9,19.8,29.43,NNW,335,9.1,27.7,95,0.00,,,0.00,VWS V14.00,2013-02-01 03:40:00,
2013-01-31 22:46:00,20.8,19.8,29.44,NNW,329,6.9,27.7,96,0.00,,,0.00,VWS V14.00,2013-02-01 03:46:00,
2013-01-31 22:52:00,20.6,19.7,29.45,NNW,329,8.3,27.7,96,0.00,,,0.00,VWS V14.00,2013-02-01 03:52:00,
2013-01-31 22:58:00,20.8,20.0,29.45,NNW,335,8.5,27.7,96,0.00,,,0.00,VWS V14.00,2013-02-01 03:58:00,
2013-01-31 23:04:00,20.7,19.8,29.45,NNW,346,7.5,27.7,96,0.00,,,0.00,VWS V14.00,2013-02-01 04:04:00,
2013-01-31 23:10:00,20.9,19.8,29.45,NNW,333,8.9,27.7,96,0.00,,,0.00,VWS V14.00,2013-02-01 04:10:00,
2013-01-31 23:16:00,20.8,19.5,29.45,NW,308,8.8,27.7,95,0.00,,,0.00,VWS V14.00,2013-02-01 04:16:00,
2013-01-31 23:22:00,20.8,19.4,29.45,NW,323,7.3,27.7,94,0.00,,,0.00,VWS V14.00,2013-02-01 04:22:00,
2013-01-31 23:28:00,21.0,19.5,29.45,NNW,332,8.9,27.7,94,0.00,,,0.00,VWS V14.00,2013-02-01 04:28:00,
2013-01-31 23:34:00,20.7,19.1,29.45,NW,319,11.8,27.7,94,0.00,,,0.00,VWS V14.00,2013-02-01 04:34:00,
2013-01-31 23:40:00,20.7,18.8,29.45,NNW,329,11.2,27.7,92,0.00,,,0.00,VWS V14.00,2013-02-01 04:40:00,
2013-01-31 23:46:00,20.7,18.5,29.45,NNW,330,9.8,27.7,91,0.00,,,0.00,VWS V14.00,2013-02-01 04:46:00,
2013-01-31 23:50:00,50.9,50.9,29.28,SE,128,8.0,19.8,100,0.00,,,0.00,VWS V14.00,2013-02-01 04:50:00,
2013-01-31 23:52:00,20.7,18.3,29.45,NW,325,6.8,12.7,90,0.00,,,0.00,VWS V14.00,2013-02-01 04:52:00,
2013-01-31 23:58:00,20.6,18.1,29.45,NW,316,7.5,13.0,90,0.00,,,0.00,VWS V14.00,2013-02-01 04:58:00,